IBE44A LEMD-LESO
Flight info
| Callsign | IBE44A |
|---|---|
| Flight time | 0h 53m |
| Altitude | 30000 |
| Route | RBO3N RBO N867 GASMO T430 LPA/N0360F140 T430 DITOP N10 SSN SSN1T LESO/22 |
| Aircraft | A319/M-SDE2E3FGHIJ1RWXY/LB1D1 |
Departure
| Time | 2026-05-01 13:13 |
|---|---|
| Airport | Adolfo Suárez Madrid–Barajas Airport (LEMD) |
Arrival
| Time | 2026-05-01 14:06 |
|---|---|
| Airport | San Sebastián Airport (LESO) |
| Time | Latitude | Longitude | Altitude | Speed | Heading |
|---|---|---|---|---|---|
| 2026-05-01 12:50 | 40.49551 | -3.58973 | 2023 ft | 0 kts | 271° |
| 2026-05-01 13:07 | 40.49253 | -3.58879 | 2028 ft | 9 kts | 161° |
| 2026-05-01 13:07 | 40.49241 | -3.58860 | 2035 ft | 1 kts | 114° |
| 2026-05-01 13:07 | 40.49240 | -3.58840 | 2025 ft | 3 kts | 90° |
| 2026-05-01 13:08 | 40.49240 | -3.58792 | 2027 ft | 7 kts | 90° |
| 2026-05-01 13:08 | 40.49240 | -3.58718 | 2027 ft | 8 kts | 90° |
| 2026-05-01 13:08 | 40.49240 | -3.58647 | 2025 ft | 7 kts | 90° |
| 2026-05-01 13:08 | 40.49240 | -3.58586 | 2022 ft | 6 kts | 90° |
| 2026-05-01 13:09 | 40.49240 | -3.58526 | 2018 ft | 6 kts | 90° |
| 2026-05-01 13:09 | 40.49240 | -3.58468 | 2016 ft | 7 kts | 90° |
| 2026-05-01 13:09 | 40.49240 | -3.58400 | 2015 ft | 9 kts | 90° |
| 2026-05-01 13:09 | 40.49241 | -3.58316 | 2010 ft | 10 kts | 89° |
| 2026-05-01 13:10 | 40.49241 | -3.58212 | 2009 ft | 12 kts | 89° |
| 2026-05-01 13:10 | 40.49242 | -3.58092 | 2005 ft | 14 kts | 89° |
| 2026-05-01 13:10 | 40.49243 | -3.57957 | 2000 ft | 15 kts | 89° |
| 2026-05-01 13:10 | 40.49243 | -3.57820 | 1995 ft | 15 kts | 90° |
| 2026-05-01 13:11 | 40.49243 | -3.57695 | 1990 ft | 13 kts | 90° |
| 2026-05-01 13:11 | 40.49259 | -3.57581 | 1987 ft | 12 kts | 65° |
| 2026-05-01 13:11 | 40.49300 | -3.57507 | 1985 ft | 9 kts | 48° |
| 2026-05-01 13:11 | 40.49339 | -3.57455 | 1985 ft | 7 kts | 34° |
| 2026-05-01 13:12 | 40.49363 | -3.57450 | 1984 ft | 0 kts | 360° |
| 2026-05-01 13:12 | 40.49385 | -3.57450 | 1983 ft | 17 kts | 359° |
| 2026-05-01 13:12 | 40.49769 | -3.57454 | 1985 ft | 91 kts | 360° |
| 2026-05-01 13:13 | 40.50609 | -3.57461 | 1994 ft | 148 kts | 360° |
| 2026-05-01 13:13 | 40.51711 | -3.57485 | 2404 ft | 160 kts | 359° |
| 2026-05-01 13:13 | 40.52814 | -3.57510 | 3108 ft | 157 kts | 359° |
| 2026-05-01 13:13 | 40.53906 | -3.57527 | 3747 ft | 158 kts | 358° |
| 2026-05-01 13:14 | 40.55016 | -3.57472 | 4314 ft | 164 kts | 14° |
| 2026-05-01 13:14 | 40.56097 | -3.57028 | 4960 ft | 162 kts | 18° |
| 2026-05-01 13:14 | 40.57206 | -3.56588 | 5474 ft | 173 kts | 18° |
| 2026-05-01 13:14 | 40.58416 | -3.56125 | 5910 ft | 189 kts | 17° |
| 2026-05-01 13:15 | 40.59731 | -3.55624 | 6319 ft | 206 kts | 17° |
| 2026-05-01 13:15 | 40.61166 | -3.55077 | 6711 ft | 223 kts | 17° |
| 2026-05-01 13:15 | 40.62724 | -3.54484 | 7091 ft | 244 kts | 16° |
| 2026-05-01 13:15 | 40.64455 | -3.54073 | 7659 ft | 261 kts | 2° |
| 2026-05-01 13:16 | 40.66328 | -3.53955 | 8258 ft | 279 kts | 1° |
| 2026-05-01 13:16 | 40.68310 | -3.53682 | 8915 ft | 295 kts | 12° |
| 2026-05-01 13:16 | 40.70274 | -3.52798 | 9791 ft | 302 kts | 25° |
| 2026-05-01 13:17 | 40.74893 | -3.46595 | 11569 ft | 347 kts | 59° |
| 2026-05-01 13:17 | 40.76205 | -3.43835 | 12098 ft | 361 kts | 58° |
| 2026-05-01 13:18 | 40.78918 | -3.38180 | 13637 ft | 372 kts | 58° |
| 2026-05-01 13:18 | 40.80324 | -3.35254 | 14373 ft | 376 kts | 58° |
| 2026-05-01 13:18 | 40.81736 | -3.32314 | 15081 ft | 380 kts | 58° |
| 2026-05-01 13:18 | 40.83230 | -3.29420 | 15781 ft | 383 kts | 50° |
| 2026-05-01 13:19 | 40.85121 | -3.26937 | 16492 ft | 386 kts | 38° |
| 2026-05-01 13:19 | 40.87387 | -3.25010 | 17206 ft | 388 kts | 25° |
| 2026-05-01 13:19 | 40.92538 | -3.23077 | 18600 ft | 392 kts | 7° |
| 2026-05-01 13:20 | 40.95247 | -3.22485 | 19203 ft | 396 kts | 7° |
| 2026-05-01 13:20 | 40.97977 | -3.21874 | 19797 ft | 400 kts | 7° |
| 2026-05-01 13:20 | 41.00738 | -3.21249 | 20374 ft | 404 kts | 8° |
| 2026-05-01 13:21 | 41.06335 | -3.19982 | 21543 ft | 412 kts | 8° |
| 2026-05-01 13:21 | 41.09170 | -3.19343 | 22109 ft | 416 kts | 7° |
| 2026-05-01 13:21 | 41.12052 | -3.18698 | 22649 ft | 420 kts | 7° |
| 2026-05-01 13:21 | 41.14947 | -3.18049 | 23195 ft | 424 kts | 8° |
| 2026-05-01 13:22 | 41.17865 | -3.17394 | 23740 ft | 428 kts | 8° |
| 2026-05-01 13:22 | 41.20811 | -3.16731 | 24178 ft | 431 kts | 8° |
| 2026-05-01 13:22 | 41.23779 | -3.16061 | 24637 ft | 433 kts | 8° |
| 2026-05-01 13:22 | 41.26758 | -3.15387 | 25086 ft | 436 kts | 8° |
| 2026-05-01 13:23 | 41.29750 | -3.14708 | 25522 ft | 438 kts | 8° |
| 2026-05-01 13:23 | 41.32773 | -3.14020 | 25954 ft | 441 kts | 8° |
| 2026-05-01 13:23 | 41.35798 | -3.13331 | 26399 ft | 443 kts | 7° |
| 2026-05-01 13:23 | 41.38846 | -3.12640 | 26837 ft | 445 kts | 7° |
| 2026-05-01 13:24 | 41.41911 | -3.11944 | 27273 ft | 447 kts | 7° |
| 2026-05-01 13:24 | 41.44993 | -3.11247 | 27692 ft | 450 kts | 7° |
| 2026-05-01 13:24 | 41.48080 | -3.10550 | 28041 ft | 452 kts | 7° |
| 2026-05-01 13:25 | 41.54214 | -3.09158 | 28126 ft | 447 kts | 7° |
| 2026-05-01 13:25 | 41.60346 | -3.07756 | 28124 ft | 447 kts | 7° |
| 2026-05-01 13:26 | 41.66473 | -3.06359 | 28122 ft | 447 kts | 7° |
| 2026-05-01 13:26 | 41.72507 | -3.04362 | 28124 ft | 450 kts | 20° |
| 2026-05-01 13:27 | 41.77891 | -3.00060 | 28123 ft | 453 kts | 34° |
| 2026-05-01 13:27 | 41.85537 | -2.92597 | 28132 ft | 453 kts | 34° |
| 2026-05-01 13:28 | 41.93146 | -2.85154 | 28160 ft | 449 kts | 34° |
| 2026-05-01 13:29 | 42.03235 | -2.75233 | 28141 ft | 449 kts | 34° |
| 2026-05-01 13:31 | 42.18318 | -2.60335 | 28131 ft | 448 kts | 35° |
| 2026-05-01 13:32 | 42.30874 | -2.47858 | 28140 ft | 447 kts | 35° |
| 2026-05-01 13:33 | 42.42462 | -2.36295 | 28133 ft | 450 kts | 36° |
| 2026-05-01 13:34 | 42.48500 | -2.30248 | 28077 ft | 478 kts | 36° |
| 2026-05-01 13:34 | 42.53893 | -2.24842 | 26286 ft | 479 kts | 36° |
| 2026-05-01 13:35 | 42.58318 | -2.20394 | 25067 ft | 468 kts | 36° |
| 2026-05-01 13:35 | 42.60925 | -2.17761 | 24354 ft | 464 kts | 36° |
| 2026-05-01 13:35 | 42.66045 | -2.12588 | 22843 ft | 455 kts | 36° |
| 2026-05-01 13:36 | 42.68571 | -2.10032 | 22102 ft | 451 kts | 36° |
| 2026-05-01 13:36 | 42.71074 | -2.07495 | 21389 ft | 446 kts | 36° |
| 2026-05-01 13:36 | 42.76006 | -2.02493 | 20063 ft | 439 kts | 36° |
| 2026-05-01 13:37 | 42.78447 | -2.00020 | 19451 ft | 435 kts | 36° |
| 2026-05-01 13:37 | 42.80861 | -1.97572 | 18877 ft | 431 kts | 36° |
| 2026-05-01 13:37 | 42.83225 | -1.95172 | 18309 ft | 428 kts | 36° |
| 2026-05-01 13:37 | 42.85606 | -1.92755 | 17693 ft | 425 kts | 36° |
| 2026-05-01 13:38 | 42.90277 | -1.88001 | 16251 ft | 415 kts | 36° |
| 2026-05-01 13:38 | 42.92579 | -1.85648 | 15502 ft | 411 kts | 36° |
| 2026-05-01 13:38 | 42.94852 | -1.83320 | 14781 ft | 406 kts | 37° |
| 2026-05-01 13:39 | 42.97101 | -1.81014 | 14059 ft | 402 kts | 37° |
| 2026-05-01 13:39 | 42.99184 | -1.79118 | 13844 ft | 385 kts | 26° |
| 2026-05-01 13:39 | 43.01612 | -1.77803 | 13658 ft | 364 kts | 13° |
| 2026-05-01 13:39 | 43.04067 | -1.77282 | 13186 ft | 354 kts | 360° |
| 2026-05-01 13:40 | 43.06503 | -1.77516 | 12567 ft | 348 kts | 348° |
| 2026-05-01 13:40 | 43.08879 | -1.78064 | 12045 ft | 343 kts | 348° |
| 2026-05-01 13:40 | 43.11182 | -1.78586 | 11908 ft | 327 kts | 349° |
| 2026-05-01 13:40 | 43.13379 | -1.79073 | 11726 ft | 314 kts | 349° |
| 2026-05-01 13:41 | 43.15497 | -1.79540 | 11567 ft | 302 kts | 349° |
| 2026-05-01 13:41 | 43.17527 | -1.79989 | 11397 ft | 289 kts | 349° |
| 2026-05-01 13:41 | 43.19496 | -1.80426 | 11040 ft | 286 kts | 349° |
| 2026-05-01 13:41 | 43.21450 | -1.80862 | 10666 ft | 284 kts | 349° |
| 2026-05-01 13:42 | 43.23393 | -1.81296 | 10288 ft | 282 kts | 350° |
| 2026-05-01 13:42 | 43.25328 | -1.81729 | 9939 ft | 280 kts | 349° |
| 2026-05-01 13:42 | 43.27239 | -1.82159 | 9427 ft | 282 kts | 350° |
| 2026-05-01 13:42 | 43.29207 | -1.82604 | 8643 ft | 293 kts | 350° |
| 2026-05-01 13:43 | 43.31267 | -1.82739 | 7848 ft | 301 kts | 7° |
| 2026-05-01 13:43 | 43.33237 | -1.82081 | 7088 ft | 307 kts | 20° |
| 2026-05-01 13:43 | 43.35282 | -1.81132 | 6276 ft | 314 kts | 20° |
| 2026-05-01 13:43 | 43.37370 | -1.80158 | 5430 ft | 320 kts | 21° |
| 2026-05-01 13:44 | 43.39309 | -1.78670 | 4738 ft | 318 kts | 40° |
| 2026-05-01 13:44 | 43.40927 | -1.76662 | 4207 ft | 309 kts | 44° |
| 2026-05-01 13:44 | 43.42491 | -1.74691 | 3737 ft | 300 kts | 44° |
| 2026-05-01 13:44 | 43.43977 | -1.72828 | 3602 ft | 279 kts | 44° |
| 2026-05-01 13:45 | 43.45364 | -1.71088 | 3481 ft | 260 kts | 44° |
| 2026-05-01 13:45 | 43.46656 | -1.69458 | 3332 ft | 245 kts | 45° |
| 2026-05-01 13:45 | 43.47881 | -1.67910 | 3102 ft | 234 kts | 45° |
| 2026-05-01 13:45 | 43.49046 | -1.66425 | 2903 ft | 222 kts | 48° |
| 2026-05-01 13:46 | 43.50054 | -1.64912 | 2713 ft | 213 kts | 45° |
| 2026-05-01 13:46 | 43.51172 | -1.63624 | 2570 ft | 204 kts | 41° |
| 2026-05-01 13:46 | 43.52252 | -1.62452 | 2511 ft | 191 kts | 41° |
| 2026-05-01 13:46 | 43.53290 | -1.61337 | 2511 ft | 190 kts | 41° |
| 2026-05-01 13:47 | 43.54328 | -1.60224 | 2514 ft | 189 kts | 41° |
| 2026-05-01 13:47 | 43.55364 | -1.59114 | 2515 ft | 190 kts | 41° |
| 2026-05-01 13:47 | 43.56202 | -1.57852 | 2500 ft | 184 kts | 65° |
| 2026-05-01 13:47 | 43.56479 | -1.56164 | 2506 ft | 180 kts | 96° |
| 2026-05-01 13:48 | 43.56071 | -1.54553 | 2509 ft | 180 kts | 126° |
| 2026-05-01 13:48 | 43.55108 | -1.53464 | 2505 ft | 183 kts | 155° |
| 2026-05-01 13:48 | 43.53849 | -1.53236 | 2498 ft | 188 kts | 187° |
| 2026-05-01 13:48 | 43.52675 | -1.53995 | 2509 ft | 192 kts | 221° |
| 2026-05-01 13:49 | 43.51826 | -1.55439 | 2522 ft | 193 kts | 230° |
| 2026-05-01 13:49 | 43.51012 | -1.56923 | 2504 ft | 194 kts | 231° |
| 2026-05-01 13:49 | 43.50198 | -1.58392 | 2514 ft | 193 kts | 230° |
| 2026-05-01 13:49 | 43.49383 | -1.59860 | 2516 ft | 193 kts | 230° |
| 2026-05-01 13:50 | 43.48568 | -1.61322 | 2519 ft | 193 kts | 230° |
| 2026-05-01 13:50 | 43.47747 | -1.62796 | 2509 ft | 193 kts | 230° |
| 2026-05-01 13:50 | 43.46931 | -1.64262 | 2514 ft | 193 kts | 230° |
| 2026-05-01 13:50 | 43.46111 | -1.65736 | 2455 ft | 193 kts | 229° |
| 2026-05-01 13:51 | 43.45306 | -1.67186 | 2244 ft | 189 kts | 230° |
| 2026-05-01 13:51 | 43.44520 | -1.68599 | 2040 ft | 181 kts | 229° |
| 2026-05-01 13:51 | 43.43795 | -1.69903 | 1879 ft | 161 kts | 230° |
| 2026-05-01 13:51 | 43.43151 | -1.71063 | 1730 ft | 147 kts | 228° |
| 2026-05-01 13:52 | 43.42528 | -1.72178 | 1594 ft | 147 kts | 228° |
| 2026-05-01 13:52 | 43.41804 | -1.73151 | 1441 ft | 145 kts | 212° |
| 2026-05-01 13:52 | 43.40963 | -1.73918 | 1240 ft | 145 kts | 208° |
| 2026-05-01 13:52 | 43.40121 | -1.74696 | 1027 ft | 147 kts | 210° |
| 2026-05-01 13:53 | 43.39272 | -1.75484 | 824 ft | 146 kts | 213° |
| 2026-05-01 13:53 | 43.37549 | -1.76964 | 480 ft | 146 kts | 217° |
| 2026-05-01 13:53 | 43.36761 | -1.77819 | 231 ft | 143 kts | 221° |
| 2026-05-01 13:54 | 43.35988 | -1.78685 | 30 ft | 143 kts | 221° |
| 2026-05-01 13:54 | 43.35265 | -1.79478 | 183 ft | 137 kts | 221° |
| 2026-05-01 13:54 | 43.34464 | -1.80388 | 797 ft | 156 kts | 221° |
| 2026-05-01 13:54 | 43.33603 | -1.81338 | 1756 ft | 161 kts | 218° |
| 2026-05-01 13:55 | 43.32762 | -1.82416 | 2539 ft | 172 kts | 222° |
| 2026-05-01 13:55 | 43.31867 | -1.83624 | 3241 ft | 189 kts | 221° |
| 2026-05-01 13:55 | 43.30904 | -1.84965 | 3792 ft | 208 kts | 228° |
| 2026-05-01 13:55 | 43.30477 | -1.86848 | 4656 ft | 215 kts | 271° |
| 2026-05-01 13:56 | 43.31069 | -1.88755 | 5054 ft | 226 kts | 313° |
| 2026-05-01 13:56 | 43.32470 | -1.89725 | 5178 ft | 233 kts | 356° |
| 2026-05-01 13:56 | 43.33998 | -1.89224 | 5198 ft | 228 kts | 39° |
| 2026-05-01 13:56 | 43.34866 | -1.87525 | 5203 ft | 217 kts | 83° |
| 2026-05-01 13:57 | 43.34774 | -1.85543 | 5209 ft | 211 kts | 111° |
| 2026-05-01 13:57 | 43.34405 | -1.84286 | 5208 ft | 209 kts | 118° |
| 2026-05-01 13:57 | 43.34305 | -1.81680 | 5209 ft | 220 kts | 69° |
| 2026-05-01 13:57 | 43.35269 | -1.80028 | 5210 ft | 227 kts | 38° |
| 2026-05-01 13:58 | 43.36587 | -1.78806 | 5131 ft | 229 kts | 37° |
| 2026-05-01 13:58 | 43.37885 | -1.77553 | 4871 ft | 227 kts | 38° |
| 2026-05-01 13:58 | 43.39164 | -1.76290 | 4537 ft | 225 kts | 38° |
| 2026-05-01 13:58 | 43.40425 | -1.75037 | 4197 ft | 222 kts | 38° |
| 2026-05-01 13:59 | 43.41670 | -1.73799 | 3933 ft | 217 kts | 38° |
| 2026-05-01 13:59 | 43.42898 | -1.72576 | 3878 ft | 216 kts | 39° |
| 2026-05-01 13:59 | 43.44074 | -1.71404 | 3827 ft | 202 kts | 38° |
| 2026-05-01 13:59 | 43.45201 | -1.70282 | 3787 ft | 200 kts | 38° |
| 2026-05-01 14:00 | 43.46325 | -1.69161 | 3728 ft | 198 kts | 39° |
| 2026-05-01 14:00 | 43.47443 | -1.68043 | 3550 ft | 197 kts | 39° |
| 2026-05-01 14:00 | 43.48558 | -1.66928 | 3303 ft | 198 kts | 39° |
| 2026-05-01 14:00 | 43.49587 | -1.65695 | 3105 ft | 191 kts | 60° |
| 2026-05-01 14:01 | 43.49964 | -1.64062 | 2988 ft | 175 kts | 92° |
| 2026-05-01 14:01 | 43.49653 | -1.62518 | 2853 ft | 164 kts | 122° |
| 2026-05-01 14:01 | 43.48860 | -1.61469 | 2733 ft | 156 kts | 150° |
| 2026-05-01 14:01 | 43.47840 | -1.61100 | 2623 ft | 151 kts | 177° |
| 2026-05-01 14:02 | 43.46831 | -1.61442 | 2511 ft | 151 kts | 205° |
| 2026-05-01 14:02 | 43.46063 | -1.62397 | 2403 ft | 150 kts | 234° |
| 2026-05-01 14:02 | 43.45596 | -1.63706 | 2306 ft | 154 kts | 242° |
| 2026-05-01 14:02 | 43.45152 | -1.65031 | 2201 ft | 149 kts | 242° |
| 2026-05-01 14:03 | 43.44721 | -1.66315 | 2085 ft | 149 kts | 242° |
| 2026-05-01 14:03 | 43.44289 | -1.67599 | 1982 ft | 147 kts | 243° |
| 2026-05-01 14:03 | 43.43859 | -1.68871 | 1859 ft | 151 kts | 243° |
| 2026-05-01 14:03 | 43.43425 | -1.70163 | 1759 ft | 147 kts | 243° |
| 2026-05-01 14:04 | 43.42995 | -1.71445 | 1645 ft | 149 kts | 242° |
| 2026-05-01 14:04 | 43.42396 | -1.72565 | 1539 ft | 145 kts | 218° |
| 2026-05-01 14:04 | 43.41577 | -1.73375 | 1371 ft | 145 kts | 209° |
| 2026-05-01 14:04 | 43.41011 | -1.73893 | 1241 ft | 145 kts | 207° |
| 2026-05-01 14:05 | 43.39871 | -1.74856 | 990 ft | 147 kts | 206° |
| 2026-05-01 14:05 | 43.38998 | -1.75576 | 774 ft | 145 kts | 209° |
| 2026-05-01 14:05 | 43.38147 | -1.76332 | 594 ft | 148 kts | 216° |
| 2026-05-01 14:05 | 43.37349 | -1.77178 | 397 ft | 145 kts | 220° |
| 2026-05-01 14:06 | 43.36573 | -1.78036 | 151 ft | 143 kts | 221° |
| 2026-05-01 14:06 | 43.35785 | -1.78908 | 36 ft | 147 kts | 219° |
| 2026-05-01 14:06 | 43.35179 | -1.79575 | 20 ft | 44 kts | 219° |
| 2026-05-01 14:06 | 43.35088 | -1.79727 | 22 ft | 15 kts | 249° |
| 2026-05-01 14:07 | 43.35061 | -1.79719 | 20 ft | 4 kts | 81° |
| 2026-05-01 14:07 | 43.35083 | -1.79686 | 21 ft | 8 kts | 42° |
| 2026-05-01 14:07 | 43.35142 | -1.79620 | 20 ft | 14 kts | 39° |
| 2026-05-01 14:08 | 43.35343 | -1.79402 | 20 ft | 20 kts | 38° |
| 2026-05-01 14:08 | 43.35442 | -1.79292 | 20 ft | 17 kts | 38° |
| 2026-05-01 14:08 | 43.35524 | -1.79198 | 18 ft | 14 kts | 38° |
| 2026-05-01 14:08 | 43.35592 | -1.79125 | 18 ft | 10 kts | 32° |
| 2026-05-01 14:09 | 43.35634 | -1.79152 | 18 ft | 5 kts | 313° |
| 2026-05-01 14:09 | 43.35646 | -1.79180 | 18 ft | 0 kts | 291° |
| 2026-05-01 14:09 | 43.35650 | -1.79194 | 17 ft | 2 kts | 292° |
| 2026-05-01 14:10 | 43.35646 | -1.79217 | 17 ft | 5 kts | 238° |
| 2026-05-01 14:10 | 43.35631 | -1.79238 | 17 ft | 0 kts | 219° |